sensor_id;sensor_type;location;lat;lon;timestamp;P1;durP1;ratioP1;P2;durP2;ratioP2
51732;SDS011;39139;53.144;6.244;2022-12-18T00:01:35;115.28;;;47.47;;
51732;SDS011;39139;53.144;6.244;2022-12-18T00:04:05;119.55;;;46.58;;
51732;SDS011;39139;53.144;6.244;2022-12-18T00:06:33;127.22;;;47.35;;
51732;SDS011;39139;53.144;6.244;2022-12-18T00:09:00;113.78;;;42.55;;
51732;SDS011;39139;53.144;6.244;2022-12-18T00:11:28;130.82;;;49.33;;
51732;SDS011;39139;53.144;6.244;2022-12-18T00:13:56;126.35;;;48.55;;
51732;SDS011;39139;53.144;6.244;2022-12-18T00:16:23;123.80;;;43.85;;
51732;SDS011;39139;53.144;6.244;2022-12-18T00:18:50;128.02;;;45.42;;
51732;SDS011;39139;53.144;6.244;2022-12-18T00:21:18;109.28;;;43.33;;
51732;SDS011;39139;53.144;6.244;2022-12-18T00:23:45;126.15;;;46.13;;
51732;SDS011;39139;53.144;6.244;2022-12-18T00:26:13;119.50;;;41.50;;
51732;SDS011;39139;53.144;6.244;2022-12-18T00:28:40;118.57;;;45.27;;
51732;SDS011;39139;53.144;6.244;2022-12-18T00:31:07;121.65;;;44.80;;
51732;SDS011;39139;53.144;6.244;2022-12-18T00:33:34;117.88;;;40.05;;
51732;SDS011;39139;53.144;6.244;2022-12-18T00:36:02;113.03;;;41.03;;
51732;SDS011;39139;53.144;6.244;2022-12-18T00:38:32;120.97;;;42.55;;
51732;SDS011;39139;53.144;6.244;2022-12-18T00:40:58;125.68;;;46.90;;
51732;SDS011;39139;53.144;6.244;2022-12-18T00:43:24;106.47;;;38.80;;
51732;SDS011;39139;53.144;6.244;2022-12-18T00:45:50;119.28;;;44.10;;
51732;SDS011;39139;53.144;6.244;2022-12-18T00:48:15;126.90;;;46.15;;
51732;SDS011;39139;53.144;6.244;2022-12-18T00:50:41;126.60;;;44.15;;
51732;SDS011;39139;53.144;6.244;2022-12-18T00:53:07;109.93;;;43.08;;
51732;SDS011;39139;53.144;6.244;2022-12-18T00:55:32;109.25;;;41.80;;
51732;SDS011;39139;53.144;6.244;2022-12-18T00:57:58;103.28;;;41.78;;
51732;SDS011;39139;53.144;6.244;2022-12-18T01:00:23;123.35;;;42.60;;
51732;SDS011;39139;53.144;6.244;2022-12-18T01:02:49;116.88;;;43.58;;
51732;SDS011;39139;53.144;6.244;2022-12-18T01:05:15;125.07;;;44.55;;
51732;SDS011;39139;53.144;6.244;2022-12-18T01:07:41;124.53;;;44.90;;
51732;SDS011;39139;53.144;6.244;2022-12-18T01:10:07;118.45;;;42.72;;
51732;SDS011;39139;53.144;6.244;2022-12-18T01:12:34;120.20;;;41.88;;
51732;SDS011;39139;53.144;6.244;2022-12-18T01:15:00;126.80;;;45.00;;
51732;SDS011;39139;53.144;6.244;2022-12-18T01:17:26;117.35;;;40.95;;
51732;SDS011;39139;53.144;6.244;2022-12-18T01:19:51;136.45;;;44.85;;
51732;SDS011;39139;53.144;6.244;2022-12-18T01:22:17;106.75;;;38.33;;
51732;SDS011;39139;53.144;6.244;2022-12-18T01:24:43;117.57;;;44.30;;
51732;SDS011;39139;53.144;6.244;2022-12-18T01:27:08;121.32;;;42.88;;
51732;SDS011;39139;53.144;6.244;2022-12-18T01:29:34;113.80;;;41.55;;
51732;SDS011;39139;53.144;6.244;2022-12-18T01:32:00;112.80;;;40.22;;
51732;SDS011;39139;53.144;6.244;2022-12-18T01:34:25;113.47;;;41.30;;
51732;SDS011;39139;53.144;6.244;2022-12-18T01:36:51;117.72;;;41.33;;
51732;SDS011;39139;53.144;6.244;2022-12-18T01:39:17;113.03;;;41.08;;
51732;SDS011;39139;53.144;6.244;2022-12-18T01:41:43;113.63;;;39.05;;
51732;SDS011;39139;53.144;6.244;2022-12-18T01:47:23;105.80;;;41.45;;
51732;SDS011;39139;53.144;6.244;2022-12-18T01:49:59;100.88;;;36.75;;
51732;SDS011;39139;53.144;6.244;2022-12-18T01:52:40;106.53;;;40.55;;
51732;SDS011;39139;53.144;6.244;2022-12-18T01:55:08;104.10;;;38.42;;
51732;SDS011;39139;53.144;6.244;2022-12-18T01:57:35;111.20;;;39.75;;
51732;SDS011;39139;53.144;6.244;2022-12-18T02:00:07;99.03;;;37.00;;
51732;SDS011;39139;53.144;6.244;2022-12-18T02:02:35;105.20;;;38.05;;
51732;SDS011;39139;53.144;6.244;2022-12-18T02:05:00;107.57;;;38.17;;
51732;SDS011;39139;53.144;6.244;2022-12-18T02:10:17;104.78;;;36.33;;
51732;SDS011;39139;53.144;6.244;2022-12-18T02:18:18;104.60;;;39.10;;
51732;SDS011;39139;53.144;6.244;2022-12-18T02:21:07;106.65;;;38.83;;
51732;SDS011;39139;53.144;6.244;2022-12-18T02:29:17;103.43;;;36.63;;
51732;SDS011;39139;53.144;6.244;2022-12-18T02:31:39;104.13;;;38.78;;
51732;SDS011;39139;53.144;6.244;2022-12-18T02:34:11;106.20;;;36.17;;
51732;SDS011;39139;53.144;6.244;2022-12-18T02:36:40;91.28;;;36.75;;
51732;SDS011;39139;53.144;6.244;2022-12-18T02:39:07;109.72;;;40.33;;
51732;SDS011;39139;53.144;6.244;2022-12-18T02:41:36;106.60;;;39.90;;
51732;SDS011;39139;53.144;6.244;2022-12-18T02:44:07;103.18;;;36.40;;
51732;SDS011;39139;53.144;6.244;2022-12-18T02:46:36;103.95;;;38.70;;
51732;SDS011;39139;53.144;6.244;2022-12-18T02:49:26;99.95;;;38.10;;
51732;SDS011;39139;53.144;6.244;2022-12-18T02:57:50;93.03;;;37.20;;
51732;SDS011;39139;53.144;6.244;2022-12-18T03:00:28;97.28;;;37.28;;
51732;SDS011;39139;53.144;6.244;2022-12-18T03:03:24;103.75;;;36.92;;
51732;SDS011;39139;53.144;6.244;2022-12-18T03:06:03;108.72;;;36.42;;
51732;SDS011;39139;53.144;6.244;2022-12-18T03:08:47;99.40;;;35.13;;
51732;SDS011;39139;53.144;6.244;2022-12-18T03:11:16;99.85;;;37.70;;
51732;SDS011;39139;53.144;6.244;2022-12-18T03:14:02;101.00;;;32.92;;
51732;SDS011;39139;53.144;6.244;2022-12-18T03:16:31;93.28;;;36.20;;
51732;SDS011;39139;53.144;6.244;2022-12-18T03:19:00;117.20;;;39.42;;
51732;SDS011;39139;53.144;6.244;2022-12-18T03:21:37;112.03;;;38.83;;
51732;SDS011;39139;53.144;6.244;2022-12-18T03:24:07;114.35;;;40.58;;
51732;SDS011;39139;53.144;6.244;2022-12-18T03:26:36;100.50;;;39.03;;
51732;SDS011;39139;53.144;6.244;2022-12-18T03:29:09;108.47;;;38.50;;
51732;SDS011;39139;53.144;6.244;2022-12-18T03:31:40;109.80;;;40.53;;
51732;SDS011;39139;53.144;6.244;2022-12-18T03:34:15;113.43;;;36.83;;
51732;SDS011;39139;53.144;6.244;2022-12-18T03:36:44;106.93;;;38.88;;
51732;SDS011;39139;53.144;6.244;2022-12-18T03:39:10;112.75;;;40.45;;
51732;SDS011;39139;53.144;6.244;2022-12-18T03:44:26;98.78;;;38.22;;
51732;SDS011;39139;53.144;6.244;2022-12-18T03:47:15;100.97;;;40.35;;
51732;SDS011;39139;53.144;6.244;2022-12-18T03:49:55;102.25;;;38.63;;
51732;SDS011;39139;53.144;6.244;2022-12-18T03:52:34;102.57;;;38.80;;
51732;SDS011;39139;53.144;6.244;2022-12-18T03:55:03;103.70;;;38.97;;
51732;SDS011;39139;53.144;6.244;2022-12-18T03:57:32;111.28;;;39.08;;
51732;SDS011;39139;53.144;6.244;2022-12-18T04:00:00;99.10;;;37.58;;
51732;SDS011;39139;53.144;6.244;2022-12-18T04:02:47;98.53;;;39.10;;
51732;SDS011;39139;53.144;6.244;2022-12-18T04:05:16;104.65;;;37.60;;
51732;SDS011;39139;53.144;6.244;2022-12-18T04:07:47;96.82;;;35.22;;
51732;SDS011;39139;53.144;6.244;2022-12-18T04:10:16;95.25;;;38.97;;
51732;SDS011;39139;53.144;6.244;2022-12-18T04:12:42;100.63;;;36.25;;
51732;SDS011;39139;53.144;6.244;2022-12-18T04:15:08;97.93;;;36.67;;
51732;SDS011;39139;53.144;6.244;2022-12-18T04:17:35;95.13;;;37.50;;
51732;SDS011;39139;53.144;6.244;2022-12-18T04:20:01;95.22;;;34.45;;
51732;SDS011;39139;53.144;6.244;2022-12-18T04:22:27;100.10;;;38.50;;
51732;SDS011;39139;53.144;6.244;2022-12-18T04:24:53;99.82;;;35.45;;
51732;SDS011;39139;53.144;6.244;2022-12-18T04:27:19;88.07;;;36.00;;
51732;SDS011;39139;53.144;6.244;2022-12-18T04:29:44;101.07;;;36.85;;
51732;SDS011;39139;53.144;6.244;2022-12-18T04:32:10;79.20;;;33.63;;
51732;SDS011;39139;53.144;6.244;2022-12-18T04:34:35;88.57;;;34.53;;
51732;SDS011;39139;53.144;6.244;2022-12-18T04:37:01;79.90;;;32.13;;
51732;SDS011;39139;53.144;6.244;2022-12-18T04:39:27;84.65;;;31.35;;
51732;SDS011;39139;53.144;6.244;2022-12-18T04:41:52;77.05;;;30.13;;
51732;SDS011;39139;53.144;6.244;2022-12-18T04:44:18;89.15;;;33.67;;
51732;SDS011;39139;53.144;6.244;2022-12-18T04:46:43;79.22;;;32.13;;
51732;SDS011;39139;53.144;6.244;2022-12-18T04:49:09;83.75;;;29.35;;
51732;SDS011;39139;53.144;6.244;2022-12-18T04:51:38;87.95;;;33.10;;
51732;SDS011;39139;53.144;6.244;2022-12-18T04:54:04;90.90;;;31.88;;
51732;SDS011;39139;53.144;6.244;2022-12-18T04:56:30;88.88;;;32.70;;
51732;SDS011;39139;53.144;6.244;2022-12-18T04:58:57;71.97;;;30.75;;
51732;SDS011;39139;53.144;6.244;2022-12-18T05:01:22;82.45;;;32.05;;
51732;SDS011;39139;53.144;6.244;2022-12-18T05:03:48;77.15;;;31.63;;
51732;SDS011;39139;53.144;6.244;2022-12-18T05:06:15;72.78;;;28.60;;
51732;SDS011;39139;53.144;6.244;2022-12-18T05:08:41;82.38;;;33.38;;
51732;SDS011;39139;53.144;6.244;2022-12-18T05:11:11;74.40;;;28.98;;
51732;SDS011;39139;53.144;6.244;2022-12-18T05:13:40;82.88;;;29.90;;
51732;SDS011;39139;53.144;6.244;2022-12-18T05:16:06;71.63;;;27.40;;
51732;SDS011;39139;53.144;6.244;2022-12-18T05:18:32;78.72;;;31.35;;
51732;SDS011;39139;53.144;6.244;2022-12-18T05:20:58;77.68;;;30.42;;
51732;SDS011;39139;53.144;6.244;2022-12-18T05:23:24;74.60;;;29.23;;
51732;SDS011;39139;53.144;6.244;2022-12-18T05:25:53;70.32;;;27.58;;
51732;SDS011;39139;53.144;6.244;2022-12-18T05:28:21;74.57;;;28.42;;
51732;SDS011;39139;53.144;6.244;2022-12-18T05:30:51;68.45;;;29.10;;
51732;SDS011;39139;53.144;6.244;2022-12-18T05:33:20;64.18;;;25.50;;
51732;SDS011;39139;53.144;6.244;2022-12-18T05:35:50;73.68;;;26.48;;
51732;SDS011;39139;53.144;6.244;2022-12-18T05:40:43;72.57;;;25.40;;
51732;SDS011;39139;53.144;6.244;2022-12-18T05:43:08;73.57;;;26.58;;
51732;SDS011;39139;53.144;6.244;2022-12-18T05:45:38;70.82;;;26.65;;
51732;SDS011;39139;53.144;6.244;2022-12-18T05:48:05;67.38;;;26.17;;
51732;SDS011;39139;53.144;6.244;2022-12-18T05:50:33;67.00;;;27.35;;
51732;SDS011;39139;53.144;6.244;2022-12-18T05:53:03;69.95;;;26.33;;
51732;SDS011;39139;53.144;6.244;2022-12-18T05:55:32;75.35;;;28.52;;
51732;SDS011;39139;53.144;6.244;2022-12-18T05:57:58;72.03;;;25.00;;
51732;SDS011;39139;53.144;6.244;2022-12-18T06:00:24;65.38;;;25.17;;
51732;SDS011;39139;53.144;6.244;2022-12-18T06:02:50;73.18;;;26.25;;
51732;SDS011;39139;53.144;6.244;2022-12-18T06:05:15;63.80;;;26.40;;
51732;SDS011;39139;53.144;6.244;2022-12-18T06:07:41;63.45;;;24.95;;
51732;SDS011;39139;53.144;6.244;2022-12-18T06:10:07;77.82;;;27.85;;
51732;SDS011;39139;53.144;6.244;2022-12-18T06:12:32;67.78;;;25.30;;
51732;SDS011;39139;53.144;6.244;2022-12-18T06:14:59;60.92;;;25.20;;
51732;SDS011;39139;53.144;6.244;2022-12-18T06:17:28;60.72;;;22.33;;
51732;SDS011;39139;53.144;6.244;2022-12-18T06:19:54;66.80;;;25.55;;
51732;SDS011;39139;53.144;6.244;2022-12-18T06:22:20;62.40;;;26.15;;
51732;SDS011;39139;53.144;6.244;2022-12-18T06:24:46;62.95;;;24.55;;
51732;SDS011;39139;53.144;6.244;2022-12-18T06:27:12;59.60;;;22.92;;
51732;SDS011;39139;53.144;6.244;2022-12-18T06:29:37;60.22;;;23.60;;
51732;SDS011;39139;53.144;6.244;2022-12-18T06:32:03;55.85;;;23.15;;
51732;SDS011;39139;53.144;6.244;2022-12-18T06:34:29;60.63;;;23.65;;
51732;SDS011;39139;53.144;6.244;2022-12-18T06:36:55;59.20;;;22.88;;
51732;SDS011;39139;53.144;6.244;2022-12-18T06:39:20;64.57;;;23.75;;
51732;SDS011;39139;53.144;6.244;2022-12-18T06:41:46;62.78;;;24.75;;
51732;SDS011;39139;53.144;6.244;2022-12-18T06:44:11;65.50;;;23.85;;
51732;SDS011;39139;53.144;6.244;2022-12-18T06:46:37;55.78;;;23.85;;
51732;SDS011;39139;53.144;6.244;2022-12-18T06:49:03;61.75;;;23.90;;
51732;SDS011;39139;53.144;6.244;2022-12-18T06:51:29;59.08;;;24.38;;
51732;SDS011;39139;53.144;6.244;2022-12-18T06:53:54;66.15;;;24.92;;
51732;SDS011;39139;53.144;6.244;2022-12-18T06:56:20;62.65;;;22.08;;
51732;SDS011;39139;53.144;6.244;2022-12-18T06:58:46;55.67;;;22.27;;
51732;SDS011;39139;53.144;6.244;2022-12-18T07:01:12;60.47;;;23.40;;
51732;SDS011;39139;53.144;6.244;2022-12-18T07:03:39;62.97;;;22.08;;
51732;SDS011;39139;53.144;6.244;2022-12-18T07:06:06;59.88;;;24.25;;
51732;SDS011;39139;53.144;6.244;2022-12-18T07:08:37;56.90;;;22.52;;
51732;SDS011;39139;53.144;6.244;2022-12-18T07:11:03;55.78;;;23.08;;
51732;SDS011;39139;53.144;6.244;2022-12-18T07:13:30;52.78;;;21.77;;
51732;SDS011;39139;53.144;6.244;2022-12-18T07:16:02;65.63;;;24.95;;
51732;SDS011;39139;53.144;6.244;2022-12-18T07:18:29;63.20;;;24.15;;
51732;SDS011;39139;53.144;6.244;2022-12-18T07:20:54;59.70;;;23.42;;
51732;SDS011;39139;53.144;6.244;2022-12-18T07:23:20;65.32;;;24.10;;
51732;SDS011;39139;53.144;6.244;2022-12-18T07:25:45;49.50;;;21.73;;
51732;SDS011;39139;53.144;6.244;2022-12-18T07:28:11;62.97;;;23.45;;
51732;SDS011;39139;53.144;6.244;2022-12-18T07:30:37;54.05;;;22.58;;
51732;SDS011;39139;53.144;6.244;2022-12-18T07:33:03;62.97;;;23.60;;
51732;SDS011;39139;53.144;6.244;2022-12-18T07:35:29;60.35;;;23.02;;
51732;SDS011;39139;53.144;6.244;2022-12-18T07:37:54;56.28;;;21.70;;
51732;SDS011;39139;53.144;6.244;2022-12-18T07:40:20;61.22;;;22.55;;
51732;SDS011;39139;53.144;6.244;2022-12-18T07:42:46;50.53;;;21.92;;
51732;SDS011;39139;53.144;6.244;2022-12-18T07:45:11;53.40;;;21.50;;
51732;SDS011;39139;53.144;6.244;2022-12-18T07:47:37;54.08;;;21.40;;
51732;SDS011;39139;53.144;6.244;2022-12-18T07:50:03;56.13;;;20.83;;
51732;SDS011;39139;53.144;6.244;2022-12-18T07:52:30;59.97;;;21.88;;
51732;SDS011;39139;53.144;6.244;2022-12-18T07:54:55;49.65;;;21.38;;
51732;SDS011;39139;53.144;6.244;2022-12-18T07:57:21;45.55;;;20.27;;
51732;SDS011;39139;53.144;6.244;2022-12-18T07:59:47;51.50;;;20.38;;
51732;SDS011;39139;53.144;6.244;2022-12-18T08:02:12;52.33;;;20.70;;
51732;SDS011;39139;53.144;6.244;2022-12-18T08:04:38;50.65;;;20.48;;
51732;SDS011;39139;53.144;6.244;2022-12-18T08:07:04;51.80;;;21.67;;
51732;SDS011;39139;53.144;6.244;2022-12-18T08:09:29;61.85;;;23.85;;
51732;SDS011;39139;53.144;6.244;2022-12-18T08:11:55;60.72;;;25.73;;
51732;SDS011;39139;53.144;6.244;2022-12-18T08:14:21;52.88;;;19.42;;
51732;SDS011;39139;53.144;6.244;2022-12-18T08:16:46;53.53;;;20.35;;
51732;SDS011;39139;53.144;6.244;2022-12-18T08:19:12;49.35;;;20.42;;
51732;SDS011;39139;53.144;6.244;2022-12-18T08:21:38;50.63;;;20.95;;
51732;SDS011;39139;53.144;6.244;2022-12-18T08:24:03;44.05;;;20.63;;
51732;SDS011;39139;53.144;6.244;2022-12-18T08:26:30;46.97;;;22.25;;
51732;SDS011;39139;53.144;6.244;2022-12-18T08:28:57;41.15;;;18.40;;
51732;SDS011;39139;53.144;6.244;2022-12-18T08:31:24;41.67;;;19.92;;
51732;SDS011;39139;53.144;6.244;2022-12-18T08:33:52;48.53;;;18.70;;
51732;SDS011;39139;53.144;6.244;2022-12-18T08:36:18;51.72;;;19.65;;
51732;SDS011;39139;53.144;6.244;2022-12-18T08:38:44;44.15;;;19.45;;
51732;SDS011;39139;53.144;6.244;2022-12-18T08:41:12;41.88;;;19.00;;
51732;SDS011;39139;53.144;6.244;2022-12-18T08:43:39;46.75;;;21.70;;
51732;SDS011;39139;53.144;6.244;2022-12-18T08:46:44;43.20;;;18.15;;
51732;SDS011;39139;53.144;6.244;2022-12-18T08:49:10;50.33;;;20.75;;
51732;SDS011;39139;53.144;6.244;2022-12-18T08:51:36;40.58;;;19.98;;
51732;SDS011;39139;53.144;6.244;2022-12-18T08:54:03;50.72;;;21.90;;
51732;SDS011;39139;53.144;6.244;2022-12-18T08:56:29;45.17;;;21.25;;
51732;SDS011;39139;53.144;6.244;2022-12-18T08:58:56;36.55;;;18.30;;
51732;SDS011;39139;53.144;6.244;2022-12-18T09:01:22;40.05;;;18.90;;
51732;SDS011;39139;53.144;6.244;2022-12-18T09:03:48;39.72;;;19.35;;
51732;SDS011;39139;53.144;6.244;2022-12-18T09:06:15;41.38;;;19.70;;
51732;SDS011;39139;53.144;6.244;2022-12-18T09:08:42;43.15;;;21.55;;
51732;SDS011;39139;53.144;6.244;2022-12-18T09:11:22;41.25;;;19.90;;
51732;SDS011;39139;53.144;6.244;2022-12-18T09:13:49;39.03;;;19.25;;
51732;SDS011;39139;53.144;6.244;2022-12-18T09:16:16;47.03;;;20.52;;
51732;SDS011;39139;53.144;6.244;2022-12-18T09:18:42;35.63;;;18.33;;
51732;SDS011;39139;53.144;6.244;2022-12-18T09:21:12;42.58;;;20.27;;
51732;SDS011;39139;53.144;6.244;2022-12-18T09:23:39;40.60;;;18.80;;
51732;SDS011;39139;53.144;6.244;2022-12-18T09:26:04;35.05;;;19.92;;
51732;SDS011;39139;53.144;6.244;2022-12-18T09:28:30;36.78;;;20.45;;
51732;SDS011;39139;53.144;6.244;2022-12-18T09:30:56;36.95;;;17.80;;
51732;SDS011;39139;53.144;6.244;2022-12-18T09:33:22;35.92;;;18.60;;
51732;SDS011;39139;53.144;6.244;2022-12-18T09:35:47;40.33;;;19.50;;
51732;SDS011;39139;53.144;6.244;2022-12-18T09:38:15;31.38;;;17.05;;
51732;SDS011;39139;53.144;6.244;2022-12-18T09:40:45;33.42;;;17.20;;
51732;SDS011;39139;53.144;6.244;2022-12-18T09:43:18;38.35;;;18.98;;
51732;SDS011;39139;53.144;6.244;2022-12-18T09:46:08;34.97;;;17.02;;
51732;SDS011;39139;53.144;6.244;2022-12-18T09:48:40;33.05;;;16.75;;
51732;SDS011;39139;53.144;6.244;2022-12-18T09:51:11;27.27;;;15.90;;
51732;SDS011;39139;53.144;6.244;2022-12-18T09:53:44;35.03;;;17.90;;
51732;SDS011;39139;53.144;6.244;2022-12-18T09:56:28;32.60;;;17.33;;
51732;SDS011;39139;53.144;6.244;2022-12-18T09:59:00;33.65;;;17.08;;
51732;SDS011;39139;53.144;6.244;2022-12-18T10:01:28;29.67;;;16.02;;
51732;SDS011;39139;53.144;6.244;2022-12-18T10:03:55;32.30;;;15.38;;
51732;SDS011;39139;53.144;6.244;2022-12-18T10:06:23;24.63;;;15.60;;
51732;SDS011;39139;53.144;6.244;2022-12-18T10:08:58;29.98;;;16.38;;
51732;SDS011;39139;53.144;6.244;2022-12-18T10:17:28;35.05;;;16.10;;
51732;SDS011;39139;53.144;6.244;2022-12-18T10:23:03;25.90;;;15.43;;
51732;SDS011;39139;53.144;6.244;2022-12-18T10:28:17;24.80;;;14.40;;
51732;SDS011;39139;53.144;6.244;2022-12-18T10:30:44;21.77;;;13.13;;
51732;SDS011;39139;53.144;6.244;2022-12-18T10:33:11;24.85;;;14.43;;
51732;SDS011;39139;53.144;6.244;2022-12-18T10:35:42;21.67;;;12.73;;
51732;SDS011;39139;53.144;6.244;2022-12-18T10:40:58;24.05;;;12.80;;
51732;SDS011;39139;53.144;6.244;2022-12-18T10:43:29;24.10;;;13.27;;
51732;SDS011;39139;53.144;6.244;2022-12-18T10:48:34;21.55;;;11.88;;
51732;SDS011;39139;53.144;6.244;2022-12-18T10:51:01;18.63;;;11.93;;
51732;SDS011;39139;53.144;6.244;2022-12-18T10:53:30;21.80;;;12.18;;
51732;SDS011;39139;53.144;6.244;2022-12-18T10:55:58;20.42;;;11.95;;
51732;SDS011;39139;53.144;6.244;2022-12-18T10:58:27;19.83;;;12.05;;
51732;SDS011;39139;53.144;6.244;2022-12-18T11:01:10;24.80;;;12.65;;
51732;SDS011;39139;53.144;6.244;2022-12-18T11:03:44;21.15;;;12.13;;
51732;SDS011;39139;53.144;6.244;2022-12-18T11:06:23;24.35;;;11.98;;
51732;SDS011;39139;53.144;6.244;2022-12-18T11:09:03;17.63;;;10.98;;
51732;SDS011;39139;53.144;6.244;2022-12-18T11:11:31;22.92;;;11.65;;
51732;SDS011;39139;53.144;6.244;2022-12-18T11:13:59;19.13;;;11.55;;
51732;SDS011;39139;53.144;6.244;2022-12-18T11:19:08;19.92;;;10.55;;
51732;SDS011;39139;53.144;6.244;2022-12-18T11:21:53;21.08;;;10.18;;
51732;SDS011;39139;53.144;6.244;2022-12-18T11:24:32;20.70;;;10.88;;
51732;SDS011;39139;53.144;6.244;2022-12-18T11:27:06;20.02;;;10.88;;
51732;SDS011;39139;53.144;6.244;2022-12-18T11:29:42;15.35;;;9.75;;
51732;SDS011;39139;53.144;6.244;2022-12-18T11:34:47;16.42;;;9.95;;
51732;SDS011;39139;53.144;6.244;2022-12-18T11:37:16;17.35;;;10.90;;
51732;SDS011;39139;53.144;6.244;2022-12-18T11:39:49;18.58;;;10.88;;
51732;SDS011;39139;53.144;6.244;2022-12-18T11:42:25;18.20;;;10.52;;
51732;SDS011;39139;53.144;6.244;2022-12-18T11:45:02;19.48;;;10.60;;
51732;SDS011;39139;53.144;6.244;2022-12-18T11:47:44;19.88;;;10.38;;
51732;SDS011;39139;53.144;6.244;2022-12-18T11:50:19;20.73;;;11.13;;
51732;SDS011;39139;53.144;6.244;2022-12-18T11:52:49;17.27;;;10.88;;
51732;SDS011;39139;53.144;6.244;2022-12-18T11:55:33;18.25;;;9.55;;
51732;SDS011;39139;53.144;6.244;2022-12-18T11:58:27;14.50;;;9.48;;
51732;SDS011;39139;53.144;6.244;2022-12-18T12:09:17;13.15;;;7.47;;
51732;SDS011;39139;53.144;6.244;2022-12-18T12:17:36;9.55;;;6.00;;
51732;SDS011;39139;53.144;6.244;2022-12-18T12:20:18;10.27;;;5.93;;
51732;SDS011;39139;53.144;6.244;2022-12-18T12:34:06;8.93;;;5.28;;
51732;SDS011;39139;53.144;6.244;2022-12-18T12:37:01;12.48;;;6.13;;
51732;SDS011;39139;53.144;6.244;2022-12-18T12:39:34;8.80;;;5.32;;
51732;SDS011;39139;53.144;6.244;2022-12-18T12:42:03;9.00;;;4.38;;
51732;SDS011;39139;53.144;6.244;2022-12-18T12:44:53;8.32;;;5.47;;
51732;SDS011;39139;53.144;6.244;2022-12-18T12:47:22;10.38;;;6.20;;
51732;SDS011;39139;53.144;6.244;2022-12-18T12:49:54;10.50;;;5.70;;
51732;SDS011;39139;53.144;6.244;2022-12-18T12:52:28;9.85;;;5.55;;
51732;SDS011;39139;53.144;6.244;2022-12-18T12:55:00;10.27;;;5.63;;
51732;SDS011;39139;53.144;6.244;2022-12-18T13:00:09;11.50;;;6.20;;
51732;SDS011;39139;53.144;6.244;2022-12-18T13:08:07;9.90;;;7.05;;
51732;SDS011;39139;53.144;6.244;2022-12-18T13:10:35;11.00;;;6.68;;
51732;SDS011;39139;53.144;6.244;2022-12-18T13:13:06;10.18;;;6.80;;
51732;SDS011;39139;53.144;6.244;2022-12-18T13:18:32;14.07;;;8.13;;
51732;SDS011;39139;53.144;6.244;2022-12-18T13:25:50;10.80;;;7.25;;
51732;SDS011;39139;53.144;6.244;2022-12-18T13:28:23;14.45;;;8.13;;
51732;SDS011;39139;53.144;6.244;2022-12-18T13:30:58;12.10;;;7.18;;
51732;SDS011;39139;53.144;6.244;2022-12-18T13:38:40;9.98;;;6.60;;
51732;SDS011;39139;53.144;6.244;2022-12-18T13:43:52;11.02;;;6.57;;
51732;SDS011;39139;53.144;6.244;2022-12-18T13:49:01;8.52;;;6.30;;
51732;SDS011;39139;53.144;6.244;2022-12-18T13:51:31;8.48;;;5.80;;
51732;SDS011;39139;53.144;6.244;2022-12-18T13:56:42;8.82;;;5.28;;
51732;SDS011;39139;53.144;6.244;2022-12-18T13:59:19;10.45;;;5.25;;
51732;SDS011;39139;53.144;6.244;2022-12-18T14:01:51;10.15;;;6.35;;
51732;SDS011;39139;53.144;6.244;2022-12-18T14:04:25;8.45;;;5.97;;
51732;SDS011;39139;53.144;6.244;2022-12-18T14:07:03;6.90;;;5.13;;
51732;SDS011;39139;53.144;6.244;2022-12-18T14:09:36;10.30;;;6.10;;
51732;SDS011;39139;53.144;6.244;2022-12-18T14:12:05;8.43;;;5.55;;
51732;SDS011;39139;53.144;6.244;2022-12-18T14:14:50;7.28;;;4.97;;
51732;SDS011;39139;53.144;6.244;2022-12-18T14:17:17;7.72;;;5.22;;
51732;SDS011;39139;53.144;6.244;2022-12-18T14:19:44;11.07;;;5.95;;
51732;SDS011;39139;53.144;6.244;2022-12-18T14:22:20;12.15;;;5.40;;
51732;SDS011;39139;53.144;6.244;2022-12-18T14:30:39;6.65;;;5.72;;
51732;SDS011;39139;53.144;6.244;2022-12-18T14:33:10;7.60;;;5.15;;
51732;SDS011;39139;53.144;6.244;2022-12-18T14:35:39;9.73;;;6.05;;
51732;SDS011;39139;53.144;6.244;2022-12-18T14:40:42;6.82;;;4.97;;
51732;SDS011;39139;53.144;6.244;2022-12-18T14:43:11;9.35;;;5.55;;
51732;SDS011;39139;53.144;6.244;2022-12-18T14:45:43;8.15;;;5.20;;
51732;SDS011;39139;53.144;6.244;2022-12-18T14:50:37;8.45;;;5.38;;
51732;SDS011;39139;53.144;6.244;2022-12-18T14:53:03;10.50;;;5.80;;
51732;SDS011;39139;53.144;6.244;2022-12-18T14:55:29;9.43;;;6.10;;
51732;SDS011;39139;53.144;6.244;2022-12-18T14:57:55;8.98;;;5.75;;
51732;SDS011;39139;53.144;6.244;2022-12-18T15:00:22;9.15;;;5.95;;
51732;SDS011;39139;53.144;6.244;2022-12-18T15:02:52;8.27;;;4.90;;
51732;SDS011;39139;53.144;6.244;2022-12-18T15:05:20;10.23;;;6.05;;
51732;SDS011;39139;53.144;6.244;2022-12-18T15:07:52;9.20;;;5.65;;
51732;SDS011;39139;53.144;6.244;2022-12-18T15:10:29;6.78;;;4.13;;
51732;SDS011;39139;53.144;6.244;2022-12-18T15:18:00;10.00;;;5.53;;
51732;SDS011;39139;53.144;6.244;2022-12-18T15:20:27;12.35;;;5.90;;
51732;SDS011;39139;53.144;6.244;2022-12-18T15:22:56;9.98;;;5.18;;
51732;SDS011;39139;53.144;6.244;2022-12-18T15:25:32;10.38;;;6.13;;
51732;SDS011;39139;53.144;6.244;2022-12-18T15:28:03;12.18;;;6.22;;
51732;SDS011;39139;53.144;6.244;2022-12-18T15:30:40;8.15;;;6.20;;
51732;SDS011;39139;53.144;6.244;2022-12-18T15:34:28;11.60;;;5.93;;
51732;SDS011;39139;53.144;6.244;2022-12-18T15:36:37;8.82;;;5.28;;
51732;SDS011;39139;53.144;6.244;2022-12-18T15:39:03;10.20;;;6.10;;
51732;SDS011;39139;53.144;6.244;2022-12-18T15:41:30;9.80;;;5.75;;
51732;SDS011;39139;53.144;6.244;2022-12-18T15:43:58;8.68;;;5.75;;
51732;SDS011;39139;53.144;6.244;2022-12-18T15:46:24;10.10;;;6.20;;
51732;SDS011;39139;53.144;6.244;2022-12-18T15:48:52;12.23;;;6.32;;
51732;SDS011;39139;53.144;6.244;2022-12-18T15:51:34;12.77;;;6.80;;
51732;SDS011;39139;53.144;6.244;2022-12-18T15:54:02;7.88;;;5.90;;
51732;SDS011;39139;53.144;6.244;2022-12-18T15:56:29;10.75;;;6.25;;
51732;SDS011;39139;53.144;6.244;2022-12-18T15:59:15;11.82;;;6.28;;
51732;SDS011;39139;53.144;6.244;2022-12-18T16:01:43;10.75;;;6.15;;
51732;SDS011;39139;53.144;6.244;2022-12-18T16:04:11;9.73;;;6.40;;
51732;SDS011;39139;53.144;6.244;2022-12-18T16:06:38;7.95;;;5.45;;
51732;SDS011;39139;53.144;6.244;2022-12-18T16:09:04;10.98;;;5.95;;
51732;SDS011;39139;53.144;6.244;2022-12-18T16:11:31;12.80;;;6.78;;
51732;SDS011;39139;53.144;6.244;2022-12-18T16:14:21;16.27;;;6.95;;
51732;SDS011;39139;53.144;6.244;2022-12-18T16:17:01;11.18;;;6.75;;
51732;SDS011;39139;53.144;6.244;2022-12-18T16:19:30;11.07;;;6.97;;
51732;SDS011;39139;53.144;6.244;2022-12-18T16:21:56;12.18;;;6.85;;
51732;SDS011;39139;53.144;6.244;2022-12-18T16:24:24;11.30;;;5.80;;
51732;SDS011;39139;53.144;6.244;2022-12-18T16:26:51;14.60;;;7.55;;
51732;SDS011;39139;53.144;6.244;2022-12-18T16:29:18;9.85;;;6.07;;
51732;SDS011;39139;53.144;6.244;2022-12-18T16:31:49;8.57;;;6.13;;
51732;SDS011;39139;53.144;6.244;2022-12-18T16:34:19;11.75;;;7.25;;
51732;SDS011;39139;53.144;6.244;2022-12-18T16:36:48;15.48;;;7.80;;
51732;SDS011;39139;53.144;6.244;2022-12-18T16:39:14;12.18;;;7.55;;